Time;durP1;ratioP1;P1;durP2;ratioP2;P2;SDS_P1;SDS_P2;PMS_P1;PMS_P2;Temp;Humidity;BMP_temperature;BMP_pressure;BME280_temperature;BME280_humidity;BME280_pressure;Samples;Min_cycle;Max_cycle;Signal;HPM_P1;HPM_P2
2022/07/04 00:02:08;;;;;;;5.73;2.10;;;19.10;99.90;;;;;;5005614;28;20509;-77
2022/07/04 00:04:35;;;;;;;3.63;2.30;;;19.00;99.90;;;;;;4995827;28;20530;-77
2022/07/04 00:07:02;;;;;;;2.33;1.90;;;19.00;99.90;;;;;;4996314;28;21000;-77
2022/07/04 00:09:29;;;;;;;2.20;2.00;;;18.90;99.90;;;;;;4999367;28;21002;-77
2022/07/04 00:11:55;;;;;;;7.23;2.53;;;18.80;99.90;;;;;;4996208;28;20947;-77
2022/07/04 00:14:22;;;;;;;2.50;2.10;;;18.70;99.90;;;;;;4990234;28;20533;-77
2022/07/04 00:16:49;;;;;;;2.50;2.17;;;18.70;99.90;;;;;;5004744;28;20450;-77
2022/07/04 00:19:15;;;;;;;3.47;2.00;;;18.60;99.90;;;;;;5007907;28;20518;-77
2022/07/04 00:21:43;;;;;;;2.50;2.30;;;18.50;99.90;;;;;;5003736;28;20450;-77
2022/07/04 00:24:10;;;;;;;3.77;2.37;;;18.50;99.90;;;;;;5005160;28;20455;-77
2022/07/04 00:26:37;;;;;;;6.03;1.90;;;18.40;99.90;;;;;;4995913;28;20507;-77
2022/07/04 00:29:03;;;;;;;2.43;2.23;;;18.30;99.90;;;;;;4995999;28;20557;-78
2022/07/04 00:31:30;;;;;;;2.17;1.97;;;18.30;99.90;;;;;;4995308;28;20459;-77
2022/07/04 00:33:57;;;;;;;4.27;2.53;;;18.30;99.90;;;;;;5006719;28;20455;-77
2022/07/04 00:36:24;;;;;;;3.10;2.27;;;18.20;99.90;;;;;;4989747;28;20479;-77
2022/07/04 00:38:51;;;;;;;2.47;2.30;;;18.20;99.90;;;;;;4994643;28;20875;-77
2022/07/04 00:41:18;;;;;;;5.40;2.20;;;18.10;99.90;;;;;;5003077;28;20450;-77
2022/07/04 00:43:59;;;;;;;5.10;2.00;;;18.10;99.90;;;;;;4998746;28;20428;-77
2022/07/04 00:46:26;;;;;;;2.63;2.20;;;18.00;99.90;;;;;;4999738;28;20831;-77
2022/07/04 00:48:53;;;;;;;4.47;2.23;;;18.00;99.90;;;;;;4994939;28;20827;-77
2022/07/04 00:51:20;;;;;;;3.43;2.17;;;17.90;99.90;;;;;;4998084;28;21013;-77
2022/07/04 00:53:46;;;;;;;4.90;2.50;;;17.90;99.90;;;;;;5005725;28;20529;-77
2022/07/04 00:56:14;;;;;;;4.60;2.53;;;17.90;99.90;;;;;;5007044;28;20453;-77
2022/07/04 00:58:41;;;;;;;6.10;2.10;;;17.80;99.90;;;;;;5008293;28;20458;-77
2022/07/04 01:01:08;;;;;;;4.27;2.40;;;17.80;99.90;;;;;;4996542;28;20437;-77
2022/07/04 01:03:34;;;;;;;4.27;2.13;;;17.70;99.90;;;;;;4995144;28;20500;-77
2022/07/04 01:06:01;;;;;;;7.13;2.50;;;17.70;99.90;;;;;;5006709;28;20448;-77
2022/07/04 01:08:28;;;;;;;4.43;2.17;;;17.70;99.90;;;;;;4994474;28;20451;-77
2022/07/04 01:10:55;;;;;;;4.40;2.53;;;17.70;99.90;;;;;;4999566;28;20523;-77
2022/07/04 01:13:24;;;;;;;3.20;2.37;;;17.60;99.90;;;;;;4994960;28;20888;-77
2022/07/04 01:15:51;;;;;;;3.63;2.30;;;17.60;99.90;;;;;;4998072;28;20474;-77
2022/07/04 01:18:18;;;;;;;2.93;2.63;;;17.60;99.90;;;;;;4999234;28;20466;-77
2022/07/04 01:20:46;;;;;;;4.87;2.47;;;17.60;99.90;;;;;;4994308;28;20997;-77
2022/07/04 01:23:13;;;;;;;6.80;2.60;;;17.50;99.90;;;;;;4995378;28;20440;-77
2022/07/04 01:25:39;;;;;;;2.70;2.50;;;17.50;99.90;;;;;;4994378;28;20518;-77
2022/07/04 01:28:07;;;;;;;4.33;2.57;;;17.50;99.90;;;;;;5002834;28;20438;-77
2022/07/04 01:30:34;;;;;;;2.50;2.30;;;17.40;99.90;;;;;;5006401;28;20509;-77
2022/07/04 01:33:01;;;;;;;3.10;2.50;;;17.40;99.90;;;;;;5007133;28;20553;-77
2022/07/04 01:35:28;;;;;;;2.83;2.70;;;17.40;99.90;;;;;;4997983;28;20525;-77
2022/07/04 01:37:56;;;;;;;3.30;3.00;;;17.40;99.90;;;;;;4991678;28;20430;-77
2022/07/04 01:40:22;;;;;;;3.93;3.20;;;17.30;99.90;;;;;;4994491;28;20447;-77
2022/07/04 01:42:49;;;;;;;2.87;2.67;;;17.30;99.90;;;;;;4990919;28;20451;-77
2022/07/04 01:45:16;;;;;;;2.93;2.70;;;17.30;99.90;;;;;;4994057;28;20444;-77
2022/07/04 01:47:43;;;;;;;7.13;2.90;;;17.20;99.90;;;;;;4993863;28;20463;-78
2022/07/04 01:50:12;;;;;;;4.03;2.37;;;17.20;99.90;;;;;;4996545;28;21214;-77
2022/07/04 01:52:39;;;;;;;3.37;2.53;;;17.20;99.90;;;;;;5003005;28;20443;-77
2022/07/04 01:55:08;;;;;;;3.23;2.80;;;17.20;99.90;;;;;;5001713;28;20850;-77
2022/07/04 01:57:35;;;;;;;3.53;2.53;;;17.20;99.90;;;;;;5004098;28;20432;-77
2022/07/04 02:02:45;;;;;;;3.10;2.73;;;17.20;99.90;;;;;;4972265;28;20949;-77
2022/07/04 02:05:12;;;;;;;3.97;2.80;;;17.10;99.90;;;;;;5006506;28;20456;-77
2022/07/04 02:07:38;;;;;;;3.17;2.77;;;17.10;99.90;;;;;;5006210;28;20995;-77
2022/07/04 02:10:07;;;;;;;4.90;2.90;;;17.10;99.90;;;;;;4999741;28;20461;-77
2022/07/04 02:15:18;;;;;;;4.10;2.60;;;17.00;99.90;;;;;;4995249;28;20566;-77
2022/07/04 02:17:45;;;;;;;3.50;3.20;;;17.00;99.90;;;;;;4995142;28;20950;-77
2022/07/04 02:20:12;;;;;;;4.33;2.80;;;17.00;99.90;;;;;;4997113;28;20976;-77
2022/07/04 02:22:39;;;;;;;3.60;3.10;;;17.00;99.90;;;;;;5013710;28;20425;-77
2022/07/04 02:25:08;;;;;;;3.33;2.83;;;16.90;99.90;;;;;;4996617;28;20642;-77
2022/07/04 02:27:34;;;;;;;2.67;2.47;;;16.90;99.90;;;;;;4995977;28;20565;-77
2022/07/04 02:30:02;;;;;;;3.17;2.97;;;16.90;99.90;;;;;;5001894;28;20484;-77
2022/07/04 02:32:29;;;;;;;5.57;3.20;;;16.80;99.90;;;;;;5005449;28;20432;-77
2022/07/04 02:34:55;;;;;;;3.23;2.93;;;16.80;99.90;;;;;;5006596;28;20458;-77
2022/07/04 02:37:22;;;;;;;5.43;2.47;;;16.70;99.90;;;;;;5003367;28;20477;-77
2022/07/04 02:39:48;;;;;;;4.07;3.17;;;16.70;99.90;;;;;;5002066;28;20489;-77
2022/07/04 02:42:16;;;;;;;6.07;2.80;;;16.60;99.90;;;;;;5006102;28;20479;-77
2022/07/04 02:44:44;;;;;;;3.20;2.80;;;16.50;99.90;;;;;;4995252;28;20496;-77
2022/07/04 02:47:11;;;;;;;7.10;2.80;;;16.70;99.90;;;;;;5002658;28;20808;-77
2022/07/04 02:49:38;;;;;;;4.27;3.27;;;16.50;99.90;;;;;;5005048;28;20428;-77
2022/07/04 02:52:05;;;;;;;3.13;2.87;;;16.50;99.90;;;;;;4997286;28;20449;-78
2022/07/04 02:54:32;;;;;;;4.60;2.97;;;16.40;99.90;;;;;;5003892;28;20445;-77
2022/07/04 02:56:58;;;;;;;7.33;3.10;;;16.40;99.90;;;;;;4999810;28;20434;-77
2022/07/04 02:59:26;;;;;;;4.23;3.07;;;16.40;99.90;;;;;;5008744;28;20426;-77
2022/07/04 03:01:53;;;;;;;8.97;3.40;;;16.30;99.90;;;;;;5004443;28;20421;-77
2022/07/04 03:04:20;;;;;;;4.97;3.03;;;16.30;99.90;;;;;;5003258;28;20838;-77
2022/07/04 03:06:47;;;;;;;4.80;3.30;;;16.30;99.90;;;;;;5003182;28;21175;-77
2022/07/04 03:09:13;;;;;;;4.40;3.30;;;16.20;99.90;;;;;;5009204;28;20432;-77
2022/07/04 03:11:40;;;;;;;3.93;3.07;;;16.20;99.90;;;;;;5004702;28;20486;-77
2022/07/04 03:14:07;;;;;;;4.37;3.40;;;16.20;99.90;;;;;;5003166;28;20463;-77
2022/07/04 03:16:34;;;;;;;5.17;2.97;;;16.20;99.90;;;;;;5000254;28;20438;-77
2022/07/04 03:19:01;;;;;;;5.80;3.10;;;16.10;99.90;;;;;;5002419;28;20935;-77
2022/07/04 03:21:28;;;;;;;3.73;3.33;;;16.10;99.90;;;;;;5002690;28;20430;-77
2022/07/04 03:24:00;;;;;;;2.80;2.67;;;16.10;99.90;;;;;;5001931;28;20429;-77
2022/07/04 03:26:30;;;;;;;4.37;3.40;;;16.00;99.90;;;;;;4998105;28;20451;-77
2022/07/04 03:28:57;;;;;;;7.00;3.50;;;16.00;99.90;;;;;;5004385;28;20933;-77
2022/07/04 03:31:24;;;;;;;11.20;3.33;;;16.00;99.90;;;;;;5001498;28;20458;-77
2022/07/04 03:33:52;;;;;;;3.60;3.30;;;15.90;99.90;;;;;;5001173;28;20453;-77
2022/07/04 03:36:19;;;;;;;6.27;3.50;;;15.90;99.90;;;;;;4998357;28;20474;-77
2022/07/04 03:38:46;;;;;;;3.30;2.97;;;15.90;99.90;;;;;;5004564;28;20436;-77
2022/07/04 03:41:13;;;;;;;3.57;3.27;;;15.90;99.90;;;;;;4998583;28;20455;-77
2022/07/04 03:43:40;;;;;;;5.20;3.40;;;15.90;99.90;;;;;;5003994;28;20450;-77
2022/07/04 03:46:06;;;;;;;3.30;3.00;;;15.90;99.90;;;;;;5001889;28;20528;-77
2022/07/04 03:48:33;;;;;;;6.80;3.57;;;15.90;99.90;;;;;;5006067;28;20432;-77
2022/07/04 03:51:01;;;;;;;4.20;3.27;;;15.90;99.90;;;;;;5000330;28;20490;-77
2022/07/04 03:53:28;;;;;;;10.60;3.67;;;15.90;99.90;;;;;;5007132;28;20463;-77
2022/07/04 03:55:54;;;;;;;8.07;3.80;;;15.80;99.90;;;;;;4995782;28;20471;-77
2022/07/04 03:58:21;;;;;;;3.47;3.17;;;15.80;99.90;;;;;;5002431;28;20432;-77
2022/07/04 04:00:48;;;;;;;4.63;3.10;;;15.80;99.90;;;;;;5004607;28;20459;-77
2022/07/04 04:05:59;;;;;;;3.20;3.00;;;15.70;99.90;;;;;;5003209;28;20517;-77
2022/07/04 04:08:26;;;;;;;3.73;3.43;;;15.80;99.90;;;;;;4997026;28;20488;-77
2022/07/04 04:10:53;;;;;;;5.10;3.00;;;15.80;99.90;;;;;;4991293;28;20491;-77
2022/07/04 04:13:20;;;;;;;5.63;3.83;;;15.80;99.90;;;;;;4997188;28;20557;-77
2022/07/04 04:15:46;;;;;;;3.37;3.07;;;15.80;99.90;;;;;;5000736;28;20969;-77
2022/07/04 04:18:13;;;;;;;4.03;3.30;;;15.80;99.90;;;;;;4996495;28;20506;-77
2022/07/04 04:20:40;;;;;;;4.67;3.30;;;15.80;99.90;;;;;;4996873;28;20450;-77
2022/07/04 04:23:07;;;;;;;3.80;3.50;;;15.80;99.90;;;;;;5006897;28;20836;-77
2022/07/04 04:25:35;;;;;;;3.87;3.00;;;15.90;99.90;;;;;;5007420;28;20464;-77
2022/07/04 04:28:01;;;;;;;10.50;3.57;;;15.90;99.90;;;;;;5008336;28;20873;-77
2022/07/04 04:30:28;;;;;;;3.43;3.03;;;15.80;99.90;;;;;;5006968;28;20479;-77
2022/07/04 04:32:54;;;;;;;4.40;3.30;;;15.90;99.90;;;;;;5007296;28;20479;-73
2022/07/04 04:35:21;;;;;;;3.47;3.17;;;15.90;99.90;;;;;;5006190;28;20478;-71
2022/07/04 04:37:48;;;;;;;4.87;3.40;;;16.00;99.90;;;;;;5007576;28;20433;-73
2022/07/04 04:40:15;;;;;;;3.17;2.90;;;16.10;99.90;;;;;;5006719;28;20425;-73
2022/07/04 04:42:43;;;;;;;6.80;3.43;;;16.10;99.90;;;;;;5007147;28;20457;-73
2022/07/04 04:45:11;;;;;;;7.90;3.03;;;16.20;99.90;;;;;;4997220;28;20508;-73
2022/07/04 04:47:37;;;;;;;4.07;3.17;;;16.20;99.90;;;;;;4995095;28;20926;-73
2022/07/04 04:50:05;;;;;;;5.53;3.07;;;16.30;99.90;;;;;;4994142;28;20430;-73
2022/07/04 04:52:31;;;;;;;4.53;3.10;;;16.40;99.90;;;;;;4995767;28;20424;-73
2022/07/04 04:54:58;;;;;;;7.27;3.07;;;16.40;99.90;;;;;;4993405;28;20532;-73
2022/07/04 04:57:25;;;;;;;2.97;2.77;;;16.40;99.90;;;;;;5006532;28;20450;-73
2022/07/04 04:59:52;;;;;;;4.00;3.40;;;16.60;99.90;;;;;;5007783;28;20775;-73
2022/07/04 05:02:19;;;;;;;3.53;3.07;;;16.70;99.90;;;;;;4997472;28;20472;-73
2022/07/04 05:04:46;;;;;;;4.23;2.90;;;16.80;99.90;;;;;;4992734;28;20475;-73
2022/07/04 05:07:12;;;;;;;13.73;3.20;;;17.00;99.90;;;;;;4998016;28;20854;-74
2022/07/04 05:09:39;;;;;;;4.30;3.13;;;17.00;99.90;;;;;;5007640;28;20839;-73
2022/07/04 05:12:06;;;;;;;3.13;2.83;;;17.20;99.90;;;;;;5007734;28;20528;-73
2022/07/04 05:14:33;;;;;;;4.40;2.73;;;17.30;99.90;;;;;;4999771;28;20875;-74
2022/07/04 05:17:01;;;;;;;5.73;2.90;;;17.40;99.90;;;;;;4989916;28;20452;-73
2022/07/04 05:19:29;;;;;;;7.97;3.10;;;17.50;99.90;;;;;;4995145;28;20846;-73
2022/07/04 05:21:56;;;;;;;2.80;2.50;;;17.60;99.90;;;;;;4993104;28;20969;-73
2022/07/04 05:24:22;;;;;;;6.60;3.53;;;17.70;99.90;;;;;;4998488;28;20453;-73
2022/07/04 05:26:49;;;;;;;2.97;2.77;;;17.90;99.90;;;;;;5007560;28;20487;-73
2022/07/04 05:29:16;;;;;;;3.10;2.83;;;18.00;99.90;;;;;;4998838;28;21033;-73
2022/07/04 05:31:43;;;;;;;8.10;3.00;;;18.10;99.90;;;;;;5006679;28;20464;-74
2022/07/04 05:34:11;;;;;;;4.40;2.93;;;18.20;99.90;;;;;;5001901;28;20955;-73
2022/07/04 05:36:37;;;;;;;6.70;2.80;;;18.40;99.90;;;;;;5002615;28;20420;-74
2022/07/04 05:39:04;;;;;;;2.50;2.30;;;18.50;99.90;;;;;;5010972;28;20458;-74
2022/07/04 05:41:31;;;;;;;8.90;2.83;;;18.60;99.90;;;;;;4997906;28;20447;-73
2022/07/04 05:43:57;;;;;;;5.40;2.87;;;18.70;99.90;;;;;;5011373;28;20437;-73
2022/07/04 05:46:24;;;;;;;3.23;2.90;;;18.80;99.90;;;;;;5004303;28;20557;-73
2022/07/04 05:48:51;;;;;;;8.33;2.93;;;18.90;99.90;;;;;;5011025;28;20446;-73
2022/07/04 05:51:18;;;;;;;7.37;2.97;;;19.00;99.90;;;;;;5009812;28;20481;-74
2022/07/04 05:53:45;;;;;;;7.13;2.73;;;19.10;99.90;;;;;;5011152;28;20942;-73
2022/07/04 05:56:12;;;;;;;3.40;2.70;;;19.30;99.90;;;;;;5009244;28;20470;-74
2022/07/04 05:58:40;;;;;;;4.20;2.77;;;19.40;99.90;;;;;;5009486;28;20432;-73
2022/07/04 06:01:07;;;;;;;2.97;2.77;;;19.50;99.90;;;;;;4999731;28;20512;-74
2022/07/04 06:03:36;;;;;;;3.27;2.30;;;19.60;99.90;;;;;;5005618;28;20954;-72
2022/07/04 06:06:03;;;;;;;3.13;1.67;;;19.80;99.90;;;;;;5007973;28;21091;-72
2022/07/04 06:08:31;;;;;;;2.80;2.00;;;20.00;99.90;;;;;;5007475;28;20425;-72
2022/07/04 06:10:58;;;;;;;3.67;2.13;;;20.20;99.90;;;;;;5006896;28;20544;-72
2022/07/04 06:13:27;;;;;;;2.77;2.20;;;20.40;99.90;;;;;;4988005;28;20835;-73
2022/07/04 06:15:53;;;;;;;1.90;1.80;;;20.70;99.90;;;;;;4994473;28;20539;-72
2022/07/04 06:18:20;;;;;;;3.77;1.63;;;20.90;99.90;;;;;;4996281;28;20462;-71
2022/07/04 06:20:47;;;;;;;3.10;2.00;;;21.10;99.90;;;;;;5004380;28;20466;-72
2022/07/04 06:23:14;;;;;;;1.90;1.80;;;21.30;99.90;;;;;;4995865;28;20459;-73
2022/07/04 06:25:42;;;;;;;3.00;1.90;;;21.50;99.90;;;;;;4998098;28;21090;-73
2022/07/04 06:28:09;;;;;;;2.90;1.70;;;21.70;99.90;;;;;;5006152;28;20622;-72
2022/07/04 06:30:36;;;;;;;4.60;1.70;;;21.80;99.90;;;;;;4994604;28;20455;-72
2022/07/04 06:33:03;;;;;;;2.60;1.70;;;21.90;99.90;;;;;;4995943;28;20459;-72
2022/07/04 06:35:45;;;;;;;1.50;1.40;;;21.90;99.90;;;;;;4996416;28;21043;-72
2022/07/04 06:38:14;;;;;;;3.37;1.50;;;22.00;99.90;;;;;;5001465;28;20887;-73
2022/07/04 06:40:43;;;;;;;3.33;1.50;;;21.90;99.90;;;;;;4994915;28;20443;-72
2022/07/04 06:43:10;;;;;;;1.80;1.20;;;22.10;99.90;;;;;;4997262;28;20554;-72
2022/07/04 06:45:37;;;;;;;3.43;1.83;;;22.20;99.90;;;;;;4994743;28;20478;-73
2022/07/04 06:48:05;;;;;;;6.93;1.67;;;22.30;99.90;;;;;;4996256;28;20462;-72
2022/07/04 06:50:32;;;;;;;2.53;1.37;;;22.40;99.90;;;;;;4996739;28;20442;-74
2022/07/04 06:52:59;;;;;;;3.47;1.50;;;22.50;99.90;;;;;;5002193;28;20502;-72
2022/07/04 06:55:26;;;;;;;3.53;1.30;;;22.50;99.90;;;;;;4999915;28;20514;-70
2022/07/04 06:57:54;;;;;;;2.37;1.50;;;22.50;99.90;;;;;;5001099;28;20459;-70
2022/07/04 07:00:21;;;;;;;2.77;1.40;;;22.60;99.90;;;;;;5000696;28;20450;-71
2022/07/04 07:02:47;;;;;;;3.33;1.17;;;22.80;99.90;;;;;;4993453;28;20507;-72
2022/07/04 07:05:14;;;;;;;2.67;1.70;;;22.90;99.90;;;;;;5005247;28;20474;-71
2022/07/04 07:07:41;;;;;;;2.67;1.50;;;23.00;99.90;;;;;;4993463;28;20451;-71
2022/07/04 07:10:08;;;;;;;1.67;1.40;;;23.20;99.90;;;;;;4993290;28;20518;-71
2022/07/04 07:12:35;;;;;;;3.30;1.60;;;23.30;99.90;;;;;;4999228;28;20487;-72
2022/07/04 07:15:04;;;;;;;3.73;1.60;;;23.30;99.90;;;;;;4994388;28;20525;-71
2022/07/04 07:17:31;;;;;;;2.80;1.63;;;23.40;99.90;;;;;;4998441;28;20504;-71
2022/07/04 07:19:57;;;;;;;2.13;1.50;;;23.40;99.90;;;;;;4998845;28;20463;-71
2022/07/04 07:22:24;;;;;;;4.20;1.37;;;23.40;99.90;;;;;;4993894;28;20455;-71
2022/07/04 07:24:51;;;;;;;3.87;1.27;;;23.50;99.90;;;;;;4997760;28;20552;-71
2022/07/04 07:27:18;;;;;;;2.07;1.50;;;23.50;99.90;;;;;;5002326;28;20452;-72
2022/07/04 07:29:45;;;;;;;3.83;1.50;;;23.60;99.90;;;;;;4995918;28;20456;-71
2022/07/04 07:32:13;;;;;;;3.03;1.60;;;23.70;99.90;;;;;;4993844;28;20553;-72
2022/07/04 07:34:40;;;;;;;1.87;1.40;;;23.90;99.90;;;;;;4992340;28;20467;-71
2022/07/04 07:37:10;;;;;;;3.10;1.43;;;24.00;99.90;;;;;;4993137;28;20947;-76
2022/07/04 07:39:37;;;;;;;3.27;1.80;;;24.10;99.90;;;;;;4996199;28;20450;-71
2022/07/04 07:42:04;;;;;;;3.03;1.40;;;24.20;99.90;;;;;;5004895;28;20454;-70
2022/07/04 07:44:31;;;;;;;3.60;1.80;;;24.10;99.90;;;;;;4993520;28;20475;-70
2022/07/04 07:46:57;;;;;;;3.30;1.20;;;24.10;99.90;;;;;;5003715;28;20455;-70
2022/07/04 07:49:25;;;;;;;5.83;1.70;;;24.20;99.90;;;;;;5006045;28;20462;-71
2022/07/04 07:51:52;;;;;;;3.77;1.30;;;24.30;99.90;;;;;;5004274;28;20482;-70
2022/07/04 07:54:19;;;;;;;5.77;1.27;;;24.40;99.90;;;;;;4990311;28;20454;-71
2022/07/04 07:56:46;;;;;;;2.23;1.27;;;24.50;99.90;;;;;;4992341;28;20479;-71
2022/07/04 07:59:12;;;;;;;1.50;1.30;;;24.60;99.90;;;;;;4993831;28;20486;-69
2022/07/04 08:01:39;;;;;;;2.70;1.30;;;24.80;99.90;;;;;;4999596;28;20455;-71
2022/07/04 08:06:53;;;;;;;3.73;1.50;;;24.80;99.90;;;;;;4994674;28;20970;-71
2022/07/04 08:09:19;;;;;;;5.80;1.33;;;24.80;99.90;;;;;;4997325;28;21049;-71
2022/07/04 08:11:46;;;;;;;3.40;1.60;;;24.80;99.90;;;;;;4999672;28;20486;-71
2022/07/04 08:14:13;;;;;;;2.43;1.40;;;24.80;99.90;;;;;;5002271;28;20528;-71
2022/07/04 08:16:40;;;;;;;1.30;1.00;;;24.80;99.90;;;;;;4993582;28;20475;-71
2022/07/04 08:19:07;;;;;;;2.23;1.10;;;24.80;99.90;;;;;;4994547;28;20460;-71
2022/07/04 08:21:34;;;;;;;2.60;1.10;;;24.50;99.90;;;;;;4993351;28;20505;-71
2022/07/04 08:24:02;;;;;;;1.27;1.17;;;24.60;99.90;;;;;;4993684;28;20870;-70
2022/07/04 08:26:28;;;;;;;1.30;0.97;;;24.80;99.90;;;;;;4993210;28;20462;-71
2022/07/04 08:28:59;;;;;;;2.60;1.00;;;24.90;99.90;;;;;;5000163;28;20568;-71
2022/07/04 08:31:25;;;;;;;2.77;1.27;;;25.10;99.90;;;;;;4993487;28;20464;-71
2022/07/04 08:33:52;;;;;;;1.73;1.20;;;25.20;99.90;;;;;;4992070;28;20474;-71
2022/07/04 08:36:19;;;;;;;1.47;1.17;;;25.10;99.90;;;;;;4993997;28;20475;-71
2022/07/04 08:38:46;;;;;;;4.43;1.20;;;25.20;99.90;;;;;;4994467;28;20450;-70
2022/07/04 08:41:16;;;;;;;6.80;1.50;;;25.30;99.90;;;;;;4993668;28;20494;-70
2022/07/04 08:43:45;;;;;;;1.67;1.10;;;25.50;99.90;;;;;;4992726;28;20490;-70
2022/07/04 08:46:11;;;;;;;1.87;1.20;;;25.40;99.90;;;;;;5002221;28;21002;-70
2022/07/04 08:48:42;;;;;;;3.13;1.10;;;25.60;99.90;;;;;;4998166;28;20462;-70
2022/07/04 08:51:15;;;;;;;3.03;1.10;;;25.70;99.90;;;;;;4998245;28;20508;-71
2022/07/04 08:53:50;;;;;;;1.60;1.10;;;25.70;99.90;;;;;;4996546;28;20555;-70
2022/07/04 08:59:05;;;;;;;2.90;1.47;;;25.90;99.80;;;;;;4994255;28;20567;-71
2022/07/04 09:01:32;;;;;;;3.10;1.53;;;25.60;97.30;;;;;;4994076;28;20451;-70
2022/07/04 09:04:00;;;;;;;1.63;1.07;;;25.20;98.60;;;;;;4997856;28;20961;-70
2022/07/04 09:06:29;;;;;;;4.33;1.10;;;25.00;98.60;;;;;;4995624;28;20547;-70
2022/07/04 09:08:56;;;;;;;2.37;1.20;;;25.30;99.70;;;;;;4992191;28;20466;-71
2022/07/04 09:11:24;;;;;;;2.60;1.00;;;25.60;99.80;;;;;;4991035;28;20510;-70
2022/07/04 09:13:50;;;;;;;1.23;1.10;;;25.90;99.10;;;;;;4993066;28;20540;-70
2022/07/04 09:16:17;;;;;;;1.53;0.97;;;26.10;98.90;;;;;;5001210;28;21013;-70
2022/07/04 09:18:44;;;;;;;1.50;1.00;;;26.10;98.50;;;;;;4999985;28;20454;-71
2022/07/04 09:21:11;;;;;;;1.60;0.87;;;26.20;97.40;;;;;;4997793;28;20504;-70
2022/07/04 09:23:40;;;;;;;1.63;1.10;;;26.00;97.60;;;;;;4996294;28;20466;-70
2022/07/04 09:26:14;;;;;;;4.50;1.57;;;26.20;97.20;;;;;;4991690;28;20490;-70
2022/07/04 09:28:43;;;;;;;3.23;1.20;;;26.40;98.00;;;;;;4990401;28;20443;-70
2022/07/04 09:31:15;;;;;;;1.43;1.17;;;26.40;97.60;;;;;;4999191;28;20959;-70
2022/07/04 09:33:46;;;;;;;1.33;1.10;;;26.70;98.50;;;;;;4991132;28;20687;-70
2022/07/04 09:36:14;;;;;;;2.60;1.30;;;26.70;97.50;;;;;;4986581;28;21077;-70
2022/07/04 09:38:40;;;;;;;3.80;1.17;;;26.80;97.10;;;;;;4996014;28;20458;-70
2022/07/04 09:41:25;;;;;;;4.50;1.30;;;26.90;95.80;;;;;;4990972;28;20825;-70
2022/07/04 09:44:04;;;;;;;2.03;1.10;;;26.90;96.40;;;;;;4999453;28;20443;-70
2022/07/04 09:46:31;;;;;;;3.00;1.00;;;27.00;96.40;;;;;;4992232;28;20466;-70
2022/07/04 09:48:58;;;;;;;1.57;1.17;;;27.20;96.40;;;;;;4998707;28;20783;-70
2022/07/04 09:51:39;;;;;;;1.37;1.10;;;27.30;96.20;;;;;;4995459;28;20454;-71
2022/07/04 09:54:22;;;;;;;2.87;1.27;;;27.30;96.50;;;;;;5005162;28;20454;-71
2022/07/04 09:56:51;;;;;;;2.77;1.10;;;27.40;95.60;;;;;;4991148;28;20458;-70
2022/07/04 09:59:20;;;;;;;2.03;1.10;;;27.30;95.50;;;;;;4993794;28;20791;-70
2022/07/04 10:01:47;;;;;;;1.87;1.53;;;27.20;96.10;;;;;;4999560;28;20450;-70
2022/07/04 10:04:14;;;;;;;1.67;1.10;;;27.40;96.20;;;;;;4988164;28;20447;-71
2022/07/04 10:06:43;;;;;;;4.00;1.07;;;27.30;95.90;;;;;;4995901;28;20533;-71
2022/07/04 10:09:11;;;;;;;1.80;1.07;;;27.30;96.30;;;;;;4995639;28;20967;-70
2022/07/04 10:11:39;;;;;;;1.10;1.00;;;27.30;95.30;;;;;;4999257;28;20934;-71
2022/07/04 10:14:07;;;;;;;2.13;1.00;;;27.40;94.90;;;;;;4997418;28;20486;-72
2022/07/04 10:16:36;;;;;;;2.37;1.30;;;27.40;93.80;;;;;;4997269;28;20951;-71
2022/07/04 10:19:03;;;;;;;1.67;0.97;;;27.30;93.20;;;;;;5004332;28;20500;-71
2022/07/04 10:21:31;;;;;;;2.70;1.03;;;27.40;93.40;;;;;;5001927;28;20506;-71
2022/07/04 10:23:58;;;;;;;2.23;1.10;;;27.70;94.40;;;;;;4997597;28;20525;-70
2022/07/04 10:26:27;;;;;;;1.83;1.03;;;28.00;93.10;;;;;;5007575;28;20474;-71
2022/07/04 10:28:54;;;;;;;3.43;1.23;;;28.00;91.70;;;;;;4995065;28;20473;-71
2022/07/04 10:31:23;;;;;;;2.50;0.80;;;28.00;92.60;;;;;;5005975;28;20977;-72
2022/07/04 10:33:52;;;;;;;1.30;0.80;;;27.90;91.40;;;;;;4996534;28;21057;-72
2022/07/04 10:36:21;;;;;;;4.60;0.90;;;27.80;92.00;;;;;;4998354;28;20471;-72
2022/07/04 10:38:50;;;;;;;5.63;1.13;;;27.90;92.50;;;;;;4999557;28;20482;-71
2022/07/04 10:41:20;;;;;;;1.73;0.80;;;27.80;91.30;;;;;;4995114;28;20462;-72
2022/07/04 10:46:47;;;;;;;2.27;0.83;;;27.90;89.10;;;;;;4993698;28;20451;-71
2022/07/04 10:49:26;;;;;;;1.40;0.70;;;27.90;88.30;;;;;;4996480;28;20501;-71
2022/07/04 10:51:54;;;;;;;2.60;0.80;;;28.00;88.30;;;;;;5001997;28;20478;-71
2022/07/04 10:54:22;;;;;;;1.20;0.80;;;28.10;88.10;;;;;;4963386;28;20476;-71
2022/07/04 10:56:52;;;;;;;1.30;1.00;;;28.10;88.30;;;;;;4982783;28;20538;-71
2022/07/04 10:59:21;;;;;;;2.77;0.90;;;28.20;88.00;;;;;;4996278;28;20846;-72
2022/07/04 11:01:50;;;;;;;2.03;1.00;;;28.30;88.30;;;;;;4997882;28;20498;-71
2022/07/04 11:04:53;;;;;;;1.10;1.00;;;28.30;89.60;;;;;;4996987;28;20443;-71
2022/07/04 11:07:22;;;;;;;1.20;1.10;;;28.50;90.30;;;;;;4988015;28;20993;-72
2022/07/04 11:10:25;;;;;;;2.40;0.90;;;28.30;88.90;;;;;;4996541;28;20495;-71
2022/07/04 11:13:25;;;;;;;1.70;1.23;;;28.30;87.00;;;;;;4996519;28;20997;-71
2022/07/04 11:16:02;;;;;;;1.30;1.00;;;28.00;89.20;;;;;;4996302;28;20477;-71
2022/07/04 11:18:30;;;;;;;1.63;0.97;;;28.00;90.80;;;;;;4995779;28;20443;-73
2022/07/04 11:20:57;;;;;;;6.10;1.00;;;27.90;90.00;;;;;;4995770;28;20457;-71
2022/07/04 11:23:25;;;;;;;2.50;1.10;;;28.00;90.50;;;;;;4992655;28;20607;-72
2022/07/04 11:25:55;;;;;;;1.10;0.83;;;28.10;90.30;;;;;;4995041;28;20485;-71
2022/07/04 11:28:23;;;;;;;1.73;1.10;;;28.20;87.60;;;;;;5004670;28;20809;-71
2022/07/04 11:30:52;;;;;;;1.20;0.90;;;28.10;89.10;;;;;;4999557;28;20471;-72
2022/07/04 11:33:20;;;;;;;4.30;1.20;;;28.20;90.00;;;;;;5003011;28;20497;-68
2022/07/04 11:36:03;;;;;;;1.20;0.90;;;28.20;91.00;;;;;;4997242;28;20475;-69
2022/07/04 11:38:47;;;;;;;2.37;0.90;;;28.30;89.10;;;;;;4996803;28;20447;-69
2022/07/04 11:46:43;;;;;;;2.63;1.10;;;28.20;91.00;;;;;;4995675;28;20443;-70
2022/07/04 11:49:10;;;;;;;2.20;0.90;;;28.40;90.50;;;;;;4992006;28;20510;-70
2022/07/04 11:51:42;;;;;;;2.10;1.13;;;28.50;91.30;;;;;;4994729;28;20614;-70
2022/07/04 11:54:11;;;;;;;5.07;0.87;;;28.70;91.00;;;;;;5002698;28;20491;-70
2022/07/04 11:56:37;;;;;;;1.60;0.97;;;28.60;89.20;;;;;;4993732;28;20459;-71
2022/07/04 11:59:11;;;;;;;2.57;0.80;;;28.50;89.70;;;;;;4998652;28;20461;-71
2022/07/04 12:01:38;;;;;;;1.87;1.17;;;28.60;90.60;;;;;;4993294;28;20877;-71
2022/07/04 12:04:16;;;;;;;6.37;1.00;;;29.00;89.20;;;;;;5000212;28;20451;-71
2022/07/04 12:06:43;;;;;;;4.30;0.80;;;29.40;88.90;;;;;;5006545;28;20537;-71
2022/07/04 12:09:12;;;;;;;5.17;0.90;;;29.20;87.30;;;;;;4998198;28;20458;-71
2022/07/04 12:11:53;;;;;;;1.30;0.80;;;29.20;87.10;;;;;;4995930;28;20454;-72
2022/07/04 12:14:19;;;;;;;1.30;0.90;;;29.10;86.10;;;;;;4991742;28;20494;-71
2022/07/04 12:16:47;;;;;;;1.40;0.90;;;29.10;88.30;;;;;;4995667;28;20446;-71
2022/07/04 12:19:14;;;;;;;3.10;1.23;;;29.20;88.30;;;;;;4995335;28;20454;-70
2022/07/04 12:21:43;;;;;;;1.43;0.90;;;29.30;87.50;;;;;;4993148;28;20476;-72
2022/07/04 12:24:11;;;;;;;1.20;0.90;;;29.10;86.20;;;;;;4998605;28;20535;-71
2022/07/04 12:26:48;;;;;;;2.53;0.90;;;29.20;88.20;;;;;;5000345;28;20446;-71
2022/07/04 12:29:22;;;;;;;3.27;1.23;;;29.40;88.40;;;;;;4989295;28;20443;-71
2022/07/04 12:31:53;;;;;;;2.70;1.30;;;29.30;85.00;;;;;;5001427;28;20623;-71
2022/07/04 12:34:20;;;;;;;1.43;0.83;;;29.30;88.30;;;;;;4989107;28;20518;-73
2022/07/04 12:36:51;;;;;;;1.30;0.87;;;29.10;88.20;;;;;;4992830;28;20466;-72
2022/07/04 12:39:30;;;;;;;3.10;1.10;;;29.30;87.30;;;;;;4993611;28;20451;-71
2022/07/04 12:42:07;;;;;;;4.37;0.90;;;29.40;87.00;;;;;;4992777;28;20455;-71
2022/07/04 12:44:34;;;;;;;1.10;0.90;;;29.50;85.50;;;;;;4997978;28;20474;-73
2022/07/04 12:47:01;;;;;;;2.60;1.10;;;29.70;87.50;;;;;;5000446;28;20451;-71
2022/07/04 12:49:27;;;;;;;1.10;0.90;;;29.70;87.00;;;;;;5005965;28;20938;-70
2022/07/04 12:52:07;;;;;;;5.13;1.00;;;29.80;87.20;;;;;;4998941;28;20450;-70
2022/07/04 12:54:36;;;;;;;1.00;0.73;;;29.70;87.70;;;;;;5006366;28;20477;-71
2022/07/04 12:57:12;;;;;;;3.97;0.80;;;29.90;86.30;;;;;;4996839;28;20490;-71
2022/07/04 12:59:39;;;;;;;1.60;0.87;;;29.80;85.90;;;;;;4986428;28;20461;-71
2022/07/04 13:02:07;;;;;;;1.93;1.00;;;29.90;86.60;;;;;;4996112;28;20986;-71
2022/07/04 13:04:34;;;;;;;2.20;0.90;;;30.00;85.10;;;;;;4985992;28;20490;-71
2022/07/04 13:07:13;;;;;;;1.57;1.10;;;29.90;83.40;;;;;;4995747;28;20486;-70
2022/07/04 13:09:41;;;;;;;1.33;1.00;;;29.10;83.70;;;;;;5004120;28;20490;-71
2022/07/04 13:12:28;;;;;;;1.77;0.90;;;29.10;86.20;;;;;;4999466;28;20978;-72
2022/07/04 13:14:56;;;;;;;1.50;1.00;;;29.00;86.60;;;;;;4998705;28;20866;-71